createdAt,value
2023-01-08T00:01:40.668Z,99642.97
2023-01-08T00:04:10.362Z,99641.28
2023-01-08T00:06:38.614Z,99644.03
2023-01-08T00:09:06.895Z,99639.59
2023-01-08T00:11:34.887Z,99631.53
2023-01-08T00:15:14.739Z,99624.72
2023-01-08T00:17:42.933Z,99625.47
2023-01-08T00:20:11.666Z,99610.34
2023-01-08T00:22:39.744Z,99611.91
2023-01-08T00:25:08.929Z,99602.13
2023-01-08T00:27:36.879Z,99608.38
2023-01-08T00:30:07.879Z,99607.38
2023-01-08T00:32:39.512Z,99587.84
2023-01-08T00:35:08.195Z,99589.66
2023-01-08T00:37:36.180Z,99584.22
2023-01-08T00:40:04.875Z,99586.66
2023-01-08T00:42:32.781Z,99590.00
2023-01-08T00:45:00.799Z,99571.53
2023-01-08T00:47:31.900Z,99587.22
2023-01-08T00:50:01.498Z,99575.59
2023-01-08T00:52:29.540Z,99580.91
2023-01-08T00:54:57.705Z,99578.34
2023-01-08T00:57:25.754Z,99573.94
2023-01-08T00:59:53.829Z,99581.13
2023-01-08T01:02:22.011Z,99591.66
2023-01-08T01:04:50.044Z,99595.13
2023-01-08T01:07:21.896Z,99587.22
2023-01-08T01:09:50.052Z,99591.69
2023-01-08T01:12:18.137Z,99589.13
2023-01-08T01:14:46.290Z,99590.03
2023-01-08T01:17:18.720Z,99582.16
2023-01-08T01:19:47.056Z,99584.03
2023-01-08T01:22:17.525Z,99586.00
2023-01-08T01:24:46.912Z,99591.34
2023-01-08T01:27:14.873Z,99594.28
2023-01-08T01:29:46.265Z,99593.72
2023-01-08T01:32:14.165Z,99598.56
2023-01-08T01:34:42.242Z,99598.19
2023-01-08T01:37:13.101Z,99592.69
2023-01-08T01:39:41.253Z,99586.97
2023-01-08T01:42:35.541Z,99587.47
2023-01-08T01:45:04.434Z,99587.34
2023-01-08T01:47:35.752Z,99583.38
2023-01-08T01:50:09.580Z,99590.03
2023-01-08T01:52:41.650Z,99581.47
2023-01-08T01:55:13.252Z,99572.97
2023-01-08T01:57:46.760Z,99578.19
2023-01-08T02:00:18.018Z,99577.38
2023-01-08T02:02:48.620Z,99572.16
2023-01-08T02:05:19.001Z,99566.03
2023-01-08T02:07:54.009Z,99566.91
2023-01-08T02:10:31.730Z,99563.31
2023-01-08T02:13:06.519Z,99560.66
2023-01-08T02:15:43.620Z,99558.03
2023-01-08T02:18:17.607Z,99557.16
2023-01-08T02:20:51.078Z,99561.63
2023-01-08T02:23:31.870Z,99560.66
2023-01-08T02:26:11.837Z,99564.25
2023-01-08T02:28:43.670Z,99557.13
2023-01-08T02:31:13.007Z,99558.97
2023-01-08T02:33:41.285Z,99558.09
2023-01-08T02:36:32.116Z,99560.66
2023-01-08T02:39:11.711Z,99557.28
2023-01-08T02:41:56.362Z,99539.53
2023-01-08T02:44:35.521Z,99549.34
2023-01-08T02:47:07.870Z,99542.34
2023-01-08T02:49:42.499Z,99531.81
2023-01-08T02:52:13.031Z,99526.50
2023-01-08T02:54:43.289Z,99523.78
2023-01-08T02:57:14.584Z,99518.41
2023-01-08T02:59:46.193Z,99513.19
2023-01-08T03:02:14.972Z,99514.81
2023-01-08T03:04:52.583Z,99514.88
2023-01-08T03:07:21.155Z,99506.00
2023-01-08T03:09:54.609Z,99504.22
2023-01-08T03:12:26.557Z,99490.91
2023-01-08T03:15:02.054Z,99488.25
2023-01-08T03:17:33.211Z,99495.28
2023-01-08T03:20:08.971Z,99490.00
2023-01-08T03:22:40.887Z,99478.50
2023-01-08T03:25:11.327Z,99476.75
2023-01-08T03:27:45.887Z,99453.75
2023-01-08T03:30:15.617Z,99451.03
2023-01-08T03:32:48.494Z,99445.69
2023-01-08T03:35:21.544Z,99448.34
2023-01-08T03:37:56.012Z,99450.09
2023-01-08T03:40:28.273Z,99458.06
2023-01-08T03:42:58.069Z,99451.91
2023-01-08T03:45:31.455Z,99455.41
2023-01-08T03:48:04.078Z,99445.78
2023-01-08T03:50:33.466Z,99452.84
2023-01-08T03:53:01.784Z,99447.53
2023-01-08T03:55:29.862Z,99446.59
2023-01-08T03:58:02.320Z,99439.50
2023-01-08T04:00:30.379Z,99427.03
2023-01-08T04:02:59.223Z,99427.84
2023-01-08T04:05:27.366Z,99427.81
2023-01-08T04:07:56.564Z,99418.88
2023-01-08T04:10:27.408Z,99417.03
2023-01-08T04:12:55.368Z,99417.72
2023-01-08T04:15:24.831Z,99396.16
2023-01-08T04:17:53.905Z,99419.47
2023-01-08T04:20:22.057Z,99416.84
2023-01-08T04:22:50.322Z,99414.19
2023-01-08T04:25:19.456Z,99420.38
2023-01-08T04:27:47.445Z,99429.22
2023-01-08T04:30:15.617Z,99419.56
2023-01-08T04:32:45.071Z,99423.19
2023-01-08T04:35:12.961Z,99419.78
2023-01-08T04:37:41.121Z,99421.47
2023-01-08T04:40:10.370Z,99423.41
2023-01-08T04:42:38.858Z,99422.53
2023-01-08T04:45:10.388Z,99422.59
2023-01-08T04:47:38.301Z,99425.34
2023-01-08T04:50:08.705Z,99425.34
2023-01-08T04:52:37.320Z,99428.09
2023-01-08T04:55:08.800Z,99422.00
2023-01-08T04:57:37.123Z,99417.78
2023-01-08T05:00:06.771Z,99415.19
2023-01-08T05:02:35.244Z,99419.63
2023-01-08T05:05:03.290Z,99422.22
2023-01-08T05:07:32.949Z,99422.19
2023-01-08T05:10:01.011Z,99410.75
2023-01-08T05:12:29.179Z,99415.13
2023-01-08T05:16:15.200Z,99420.78
2023-01-08T05:18:43.591Z,99420.81
2023-01-08T05:21:12.259Z,99422.63
2023-01-08T05:23:40.455Z,99426.09
2023-01-08T05:26:08.617Z,99418.94
2023-01-08T05:28:39.877Z,99414.44
2023-01-08T05:31:08.033Z,99412.66
2023-01-08T05:33:37.463Z,99404.69
2023-01-08T05:36:09.480Z,99400.09
2023-01-08T05:38:37.633Z,99398.25
2023-01-08T05:41:08.768Z,99395.66
2023-01-08T05:43:37.153Z,99403.63
2023-01-08T05:46:06.495Z,99402.03
2023-01-08T05:48:38.816Z,99397.56
2023-01-08T05:51:06.843Z,99399.59
2023-01-08T05:53:38.040Z,99401.38
2023-01-08T05:56:11.754Z,99400.41
2023-01-08T05:58:42.362Z,99401.25
2023-01-08T06:01:15.829Z,99397.75
2023-01-08T06:03:45.600Z,99395.97
2023-01-08T06:06:14.397Z,99392.34
2023-01-08T06:08:42.396Z,99395.00
2023-01-08T06:11:12.553Z,99393.16
2023-01-08T06:13:45.464Z,99397.63
2023-01-08T06:16:17.734Z,99398.50
2023-01-08T06:18:47.265Z,99399.22
2023-01-08T06:21:15.828Z,99396.56
2023-01-08T06:23:45.945Z,99393.91
2023-01-08T06:26:16.251Z,99394.03
2023-01-08T06:28:44.236Z,99398.41
2023-01-08T06:31:12.402Z,99402.75
2023-01-08T06:33:40.776Z,99402.75
2023-01-08T06:36:10.643Z,99404.44
2023-01-08T06:38:38.968Z,99404.44
2023-01-08T06:41:08.777Z,99390.47
2023-01-08T06:43:37.197Z,99403.47
2023-01-08T06:46:05.612Z,99408.72
2023-01-08T06:48:36.578Z,99424.50
2023-01-08T06:51:07.718Z,99406.00
2023-01-08T06:53:37.070Z,99413.91
2023-01-08T06:56:07.610Z,99412.31
2023-01-08T06:58:35.595Z,99411.47
2023-01-08T07:01:03.657Z,99410.72
2023-01-08T07:03:33.951Z,99404.59
2023-01-08T07:06:03.417Z,99412.44
2023-01-08T07:08:33.585Z,99401.84
2023-01-08T07:11:05.053Z,99389.50
2023-01-08T07:13:35.564Z,99397.47
2023-01-08T07:16:07.148Z,99407.19
2023-01-08T07:18:36.093Z,99401.97
2023-01-08T07:21:04.485Z,99417.75
2023-01-08T07:23:33.078Z,99407.16
2023-01-08T07:26:02.074Z,99404.63
2023-01-08T07:28:31.953Z,99410.63
2023-01-08T07:31:04.169Z,99416.72
2023-01-08T07:33:32.388Z,99420.28
2023-01-08T07:36:00.533Z,99421.13
2023-01-08T07:38:28.994Z,99418.38
2023-01-08T07:40:58.597Z,99414.78
2023-01-08T07:43:30.109Z,99407.69
2023-01-08T07:45:59.527Z,99412.97
2023-01-08T07:48:30.072Z,99418.09
2023-01-08T07:51:04.666Z,99415.38
2023-01-08T07:53:35.600Z,99423.09
2023-01-08T07:56:05.059Z,99426.50
2023-01-08T07:58:36.396Z,99434.41
2023-01-08T08:01:09.154Z,99429.00
2023-01-08T08:03:37.560Z,99429.03
2023-01-08T08:06:06.538Z,99436.97
2023-01-08T08:08:34.908Z,99427.25
2023-01-08T08:11:05.411Z,99417.72
2023-01-08T08:13:33.522Z,99434.25
2023-01-08T08:16:08.307Z,99424.47
2023-01-08T08:18:36.645Z,99424.41
2023-01-08T08:21:06.111Z,99427.88
2023-01-08T08:23:36.571Z,99424.34
2023-01-08T08:26:05.452Z,99407.91
2023-01-08T08:28:37.044Z,99427.16
2023-01-08T08:31:07.300Z,99426.25
2023-01-08T08:33:40.325Z,99429.81
2023-01-08T08:36:10.421Z,99423.63
2023-01-08T08:38:39.927Z,99413.97
2023-01-08T08:41:08.183Z,99422.03
2023-01-08T08:43:36.180Z,99415.03
2023-01-08T08:46:05.919Z,99419.47
2023-01-08T08:48:34.083Z,99410.69
2023-01-08T08:51:02.092Z,99414.31
2023-01-08T08:53:30.179Z,99415.38
2023-01-08T08:55:59.574Z,99395.13
2023-01-08T08:58:28.029Z,99399.44
2023-01-08T09:00:56.263Z,99402.94
2023-01-08T09:03:25.806Z,99401.03
2023-01-08T09:05:53.804Z,99409.84
2023-01-08T09:08:24.862Z,99411.63
2023-01-08T09:10:55.245Z,99414.16
2023-01-08T09:13:23.528Z,99412.31
2023-01-08T09:15:51.636Z,99413.03
2023-01-08T09:18:19.713Z,99412.16
2023-01-08T09:20:49.386Z,99411.06
2023-01-08T09:23:17.381Z,99409.25
2023-01-08T09:25:47.945Z,99416.38
2023-01-08T09:28:17.255Z,99412.88
2023-01-08T09:30:45.446Z,99406.00
2023-01-08T09:33:13.898Z,99408.59
2023-01-08T09:35:44.868Z,99414.59
2023-01-08T09:38:14.474Z,99415.47
2023-01-08T09:40:47.668Z,99403.88
2023-01-08T09:43:19.020Z,99406.44
2023-01-08T09:45:51.767Z,99403.66
2023-01-08T09:48:23.952Z,99408.69
2023-01-08T09:50:52.094Z,99402.66
2023-01-08T09:53:22.348Z,99406.72
2023-01-08T09:56:09.188Z,99411.31
2023-01-08T09:58:45.571Z,99397.16
2023-01-08T10:01:16.871Z,99397.94
2023-01-08T10:03:48.939Z,99399.53
2023-01-08T10:06:19.748Z,99399.38
2023-01-08T10:08:51.249Z,99402.84
2023-01-08T10:11:20.107Z,99392.22
2023-01-08T10:17:27.151Z,99396.00
2023-01-08T10:19:55.809Z,99396.59
2023-01-08T10:22:29.744Z,99393.78
2023-01-08T10:25:07.740Z,99393.50
2023-01-08T10:27:46.677Z,99394.47
2023-01-08T10:30:19.746Z,99393.28
2023-01-08T10:32:54.268Z,99358.34
2023-01-08T10:35:33.312Z,99385.88
2023-01-08T10:38:01.724Z,99383.00
2023-01-08T10:40:38.299Z,99387.00
2023-01-08T10:43:09.448Z,99373.44
2023-01-08T10:45:37.546Z,99363.19
2023-01-08T10:48:13.734Z,99360.91
2023-01-08T10:50:41.744Z,99363.53
2023-01-08T10:53:25.447Z,99360.69
2023-01-08T10:56:00.571Z,99350.28
2023-01-08T10:58:41.243Z,99344.06
2023-01-08T11:01:13.047Z,99347.88
2023-01-08T11:03:50.068Z,99349.31
2023-01-08T11:06:24.537Z,99343.28
2023-01-08T11:08:54.695Z,99327.63
2023-01-08T11:11:23.826Z,99326.44
2023-01-08T11:13:57.746Z,99334.34
2023-01-08T11:16:33.748Z,99335.66
2023-01-08T11:19:07.395Z,99317.31
2023-01-08T11:21:36.931Z,99324.00
2023-01-08T11:24:13.531Z,99312.47
2023-01-08T11:27:02.727Z,99308.03
2023-01-08T11:29:41.927Z,99306.44
2023-01-08T11:32:38.618Z,99299.66
2023-01-08T11:35:18.492Z,99289.94
2023-01-08T11:37:52.304Z,99283.78
2023-01-08T11:40:32.963Z,99283.00
2023-01-08T11:43:18.004Z,99283.78
2023-01-08T11:46:01.000Z,99279.13
2023-01-08T11:49:03.678Z,99265.06
2023-01-08T11:51:45.625Z,99265.31
2023-01-08T11:54:26.409Z,99258.03
2023-01-08T11:57:08.529Z,99252.34
2023-01-08T11:59:59.334Z,99245.94
2023-01-08T12:02:47.158Z,99250.75
2023-01-08T12:05:28.290Z,99243.66
2023-01-08T12:08:05.423Z,99227.59
2023-01-08T12:10:45.922Z,99221.59
2023-01-08T12:13:37.788Z,99222.81
2023-01-08T12:16:20.104Z,99221.13
2023-01-08T12:19:16.796Z,99207.84
2023-01-08T12:21:59.996Z,99209.16
2023-01-08T12:24:57.345Z,99204.69
2023-01-08T12:27:55.683Z,99211.63
2023-01-08T12:30:39.519Z,99214.03
2023-01-08T12:33:14.791Z,99201.59
2023-01-08T12:35:50.434Z,99204.31
2023-01-08T12:38:22.773Z,99201.44
2023-01-08T12:40:56.846Z,99197.22
2023-01-08T12:43:31.519Z,99195.44
2023-01-08T12:46:03.004Z,99185.25
2023-01-08T12:48:34.891Z,99178.97
2023-01-08T12:51:09.703Z,99180.03
2023-01-08T12:53:50.494Z,99176.03
2023-01-08T12:56:27.799Z,99178.84
2023-01-08T12:59:15.738Z,99184.69
2023-01-08T13:01:50.751Z,99182.25
2023-01-08T13:04:19.545Z,99191.31
2023-01-08T13:06:53.010Z,99182.41
2023-01-08T13:09:23.942Z,99184.28
2023-01-08T13:11:55.304Z,99197.94
2023-01-08T13:14:26.760Z,99184.63
2023-01-08T13:17:04.621Z,99177.72
2023-01-08T13:19:41.681Z,99182.13
2023-01-08T13:22:26.496Z,99163.66
2023-01-08T13:25:10.188Z,99164.16
2023-01-08T13:27:39.558Z,99160.00
2023-01-08T13:30:39.465Z,99155.78
2023-01-08T13:33:38.340Z,99156.53
2023-01-08T13:36:22.042Z,99142.06
2023-01-08T13:39:23.338Z,99149.97
2023-01-08T13:42:00.722Z,99140.88
2023-01-08T13:44:34.942Z,99141.41
2023-01-08T13:47:18.064Z,99142.75
2023-01-08T13:49:50.077Z,99134.72
2023-01-08T13:52:42.573Z,99134.47
2023-01-08T13:55:17.772Z,99143.53
2023-01-08T13:57:50.596Z,99135.34
2023-01-08T14:00:25.443Z,99132.28
2023-01-08T14:02:55.163Z,99135.19
2023-01-08T14:05:27.335Z,99130.91
2023-01-08T14:07:56.076Z,99117.56
2023-01-08T14:10:25.915Z,99099.44
2023-01-08T14:12:57.666Z,99111.38
2023-01-08T14:15:29.782Z,99108.69
2023-01-08T14:17:58.694Z,99111.22
2023-01-08T14:20:35.651Z,99112.09
2023-01-08T14:23:10.054Z,99120.94
2023-01-08T14:25:38.502Z,99108.56
2023-01-08T14:28:07.520Z,99113.66
2023-01-08T14:30:50.930Z,99107.47
2023-01-08T14:33:25.881Z,99100.56
2023-01-08T14:35:55.198Z,99090.72
2023-01-08T14:38:25.634Z,99086.34
2023-01-08T14:41:02.227Z,99093.31
2023-01-08T14:43:34.862Z,99095.16
2023-01-08T14:46:16.570Z,99099.56
2023-01-08T14:48:46.233Z,99094.91
2023-01-08T14:51:20.543Z,99103.66
2023-01-08T14:53:51.759Z,99092.69
2023-01-08T14:56:23.839Z,99089.94
2023-01-08T14:58:52.908Z,99090.56
2023-01-08T15:01:24.785Z,99079.84
2023-01-08T15:04:04.986Z,99070.47
2023-01-08T15:06:34.526Z,99062.72
2023-01-08T15:09:03.872Z,99070.69
2023-01-08T15:11:50.741Z,99068.09
2023-01-08T15:14:26.850Z,99058.69
2023-01-08T15:18:16.855Z,99060.56
2023-01-08T15:20:47.220Z,99062.59
2023-01-08T15:23:37.429Z,99061.03
2023-01-08T15:26:12.544Z,99059.38
2023-01-08T15:28:46.548Z,99022.91
2023-01-08T15:31:24.781Z,99058.84
2023-01-08T15:33:56.464Z,99053.72
2023-01-08T15:36:26.450Z,99053.84
2023-01-08T15:38:56.976Z,99050.38
2023-01-08T15:41:51.619Z,99054.00
2023-01-08T15:44:20.168Z,99039.81
2023-01-08T15:46:48.562Z,99028.59
2023-01-08T15:49:18.096Z,99027.88
2023-01-08T15:51:49.341Z,99030.72
2023-01-08T15:54:19.658Z,99030.84
2023-01-08T15:56:48.210Z,99026.44
2023-01-08T15:59:18.604Z,99023.69
2023-01-08T16:01:46.823Z,99023.56
2023-01-08T16:04:18.695Z,99022.63
2023-01-08T16:06:46.980Z,99028.69
2023-01-08T16:09:15.020Z,99021.47
2023-01-08T16:11:52.725Z,99010.06
2023-01-08T16:14:23.676Z,99012.78
2023-01-08T16:16:53.033Z,99006.59
2023-01-08T16:19:30.911Z,99011.91
2023-01-08T16:21:59.996Z,99012.00
2023-01-08T16:24:28.364Z,98994.53
2023-01-08T16:26:56.816Z,99004.03
2023-01-08T16:29:28.338Z,99009.19
2023-01-08T16:31:58.831Z,99010.94
2023-01-08T16:34:28.294Z,99011.13
2023-01-08T16:36:58.881Z,99004.25
2023-01-08T16:39:27.408Z,99009.56
2023-01-08T16:41:55.594Z,99004.38
2023-01-08T16:44:28.511Z,99005.03
2023-01-08T16:46:57.218Z,98995.59
2023-01-08T16:49:29.654Z,98995.59
2023-01-08T16:51:58.166Z,98995.53
2023-01-08T16:54:27.372Z,98994.63
2023-01-08T16:56:59.293Z,98995.25
2023-01-08T16:59:27.770Z,98995.31
2023-01-08T17:01:58.192Z,98984.81
2023-01-08T17:04:32.646Z,98990.94
2023-01-08T17:07:02.833Z,98983.97
2023-01-08T17:09:33.361Z,98981.47
2023-01-08T17:12:03.824Z,98982.31
2023-01-08T17:14:35.445Z,98978.09
2023-01-08T17:17:06.604Z,98967.09
2023-01-08T17:19:36.006Z,98955.13
2023-01-08T17:22:09.599Z,98956.50
2023-01-08T17:24:40.772Z,98949.19
2023-01-08T17:27:08.993Z,98937.97
2023-01-08T17:29:39.880Z,98929.47
2023-01-08T17:32:12.379Z,98920.88
2023-01-08T17:34:42.067Z,98909.50
2023-01-08T17:37:13.208Z,98886.72
2023-01-08T17:39:41.465Z,98911.78
2023-01-08T17:42:27.744Z,98906.69
2023-01-08T17:45:05.578Z,98901.53
2023-01-08T17:47:35.092Z,98887.91
2023-01-08T17:50:05.797Z,98904.56
2023-01-08T17:52:34.092Z,98903.06
2023-01-08T17:55:06.189Z,98896.22
2023-01-08T17:57:36.586Z,98894.44
2023-01-08T18:00:05.663Z,98892.78
2023-01-08T18:02:36.546Z,98877.50
2023-01-08T18:05:12.557Z,98906.94
2023-01-08T18:07:43.639Z,98900.78
2023-01-08T18:10:14.813Z,98899.22
2023-01-08T18:12:42.906Z,98897.75
2023-01-08T18:15:16.463Z,98885.56
2023-01-08T18:17:44.846Z,98890.06
2023-01-08T18:20:14.960Z,98902.59
2023-01-08T18:22:46.061Z,98903.78
2023-01-08T18:25:14.211Z,98895.91
2023-01-08T18:27:42.969Z,98893.00
2023-01-08T18:30:12.731Z,98888.59
2023-01-08T18:32:41.044Z,98890.34
2023-01-08T18:35:12.896Z,98878.00
2023-01-08T18:37:44.692Z,98877.13
2023-01-08T18:40:13.601Z,98870.16
2023-01-08T18:42:41.674Z,98870.16
2023-01-08T18:45:15.212Z,98873.56
2023-01-08T18:47:43.330Z,98869.91
2023-01-08T18:50:12.625Z,98831.50
2023-01-08T18:52:45.487Z,98851.09
2023-01-08T18:55:21.578Z,98835.28
2023-01-08T18:57:53.320Z,98837.72
2023-01-08T19:00:26.291Z,98832.47
2023-01-08T19:02:57.087Z,98827.19
2023-01-08T19:05:27.918Z,98835.75
2023-01-08T19:07:57.416Z,98835.53
2023-01-08T19:10:28.021Z,98836.16
2023-01-08T19:12:56.211Z,98830.94
2023-01-08T19:15:26.798Z,98825.50
2023-01-08T19:18:00.884Z,98827.06
2023-01-08T19:20:31.690Z,98820.84
2023-01-08T19:23:01.186Z,98813.56
2023-01-08T19:25:31.949Z,98815.41
2023-01-08T19:27:59.936Z,98805.78
2023-01-08T19:30:31.162Z,98797.00
2023-01-08T19:32:59.382Z,98798.78
2023-01-08T19:35:27.549Z,98791.84
2023-01-08T19:37:55.965Z,98789.25
2023-01-08T19:40:25.607Z,98772.47
2023-01-08T19:43:11.264Z,98774.13
2023-01-08T19:45:39.251Z,98765.00
2023-01-08T19:48:10.037Z,98774.47
2023-01-08T19:50:40.730Z,98765.50
2023-01-08T19:53:09.026Z,98753.97
2023-01-08T19:55:38.510Z,98760.16
2023-01-08T19:58:06.827Z,98760.00
2023-01-08T20:00:37.532Z,98716.72
2023-01-08T20:03:06.365Z,98743.13
2023-01-08T20:05:34.959Z,98742.44
2023-01-08T20:08:03.228Z,98737.16
2023-01-08T20:10:31.333Z,98734.47
2023-01-08T20:13:01.037Z,98733.59
2023-01-08T20:15:29.255Z,98726.56
2023-01-08T20:19:20.437Z,98714.66
2023-01-08T20:21:50.821Z,98715.44
2023-01-08T20:24:21.496Z,98712.91
2023-01-08T20:26:49.705Z,98709.25
2023-01-08T20:29:18.345Z,98707.47
2023-01-08T20:31:47.055Z,98694.44
2023-01-08T20:34:17.112Z,98704.97
2023-01-08T20:36:46.742Z,98700.56
2023-01-08T20:39:16.705Z,98703.31
2023-01-08T20:41:55.251Z,98700.75
2023-01-08T20:44:32.025Z,98691.84
2023-01-08T20:47:00.172Z,98688.25
2023-01-08T20:49:29.450Z,98678.56
2023-01-08T20:52:00.379Z,98663.06
2023-01-08T20:54:30.207Z,98668.09
2023-01-08T20:56:59.470Z,98671.69
2023-01-08T20:59:28.061Z,98662.91
2023-01-08T21:01:57.242Z,98665.50
2023-01-08T21:04:25.960Z,98661.22
2023-01-08T21:06:54.246Z,98655.81
2023-01-08T21:09:23.653Z,98659.25
2023-01-08T21:11:51.865Z,98647.66
2023-01-08T21:14:20.023Z,98648.50
2023-01-08T21:16:51.136Z,98638.03
2023-01-08T21:19:19.480Z,98643.41
2023-01-08T21:21:47.469Z,98639.19
2023-01-08T21:24:16.320Z,98642.78
2023-01-08T21:26:47.182Z,98639.25
2023-01-08T21:29:17.064Z,98626.13
2023-01-08T21:31:45.375Z,98624.41
2023-01-08T21:34:13.901Z,98612.22
2023-01-08T21:36:42.268Z,98613.09
2023-01-08T21:39:11.327Z,98606.16
2023-01-08T21:42:00.096Z,98592.06
2023-01-08T21:44:47.114Z,98577.09
2023-01-08T21:47:19.100Z,98572.16
2023-01-08T21:49:47.740Z,98579.09
2023-01-08T21:52:33.900Z,98573.72
2023-01-08T21:55:02.548Z,98568.34
2023-01-08T21:57:30.706Z,98564.72
2023-01-08T22:00:00.203Z,98563.47
2023-01-08T22:02:30.313Z,98555.13
2023-01-08T22:04:58.639Z,98548.78
2023-01-08T22:07:27.209Z,98542.41
2023-01-08T22:09:56.131Z,98529.75
2023-01-08T22:12:25.617Z,98532.97
2023-01-08T22:14:54.325Z,98532.75
2023-01-08T22:17:25.427Z,98527.97
2023-01-08T22:19:54.373Z,98530.56
2023-01-08T22:22:22.512Z,98526.19
2023-01-08T22:24:51.584Z,98519.25
2023-01-08T22:27:19.832Z,98514.94
2023-01-08T22:29:47.949Z,98519.47
2023-01-08T22:32:16.027Z,98507.31
2023-01-08T22:34:45.450Z,98504.69
2023-01-08T22:37:17.168Z,98499.53
2023-01-08T22:39:46.819Z,98500.56
2023-01-08T22:42:15.028Z,98493.88
2023-01-08T22:44:43.408Z,98494.94
2023-01-08T22:47:13.589Z,98486.59
2023-01-08T22:49:41.706Z,98485.00
2023-01-08T22:52:11.461Z,98481.66
2023-01-08T22:54:42.547Z,98479.09
2023-01-08T22:57:11.306Z,98489.84
2023-01-08T22:59:39.374Z,98481.94
2023-01-08T23:02:07.422Z,98484.53
2023-01-08T23:04:35.654Z,98482.75
2023-01-08T23:07:03.804Z,98485.31
2023-01-08T23:09:35.163Z,98485.41
2023-01-08T23:12:05.463Z,98494.13
2023-01-08T23:14:33.526Z,98487.09
2023-01-08T23:17:04.291Z,98495.88
2023-01-08T23:19:32.320Z,98499.28
2023-01-08T23:22:00.396Z,98496.69
2023-01-08T23:24:30.692Z,98469.78
2023-01-08T23:27:00.167Z,98478.22
2023-01-08T23:29:29.649Z,98483.53
2023-01-08T23:31:58.399Z,98472.81
2023-01-08T23:34:26.592Z,98470.13
2023-01-08T23:36:55.293Z,98462.31
2023-01-08T23:39:26.689Z,98464.97
2023-01-08T23:41:54.797Z,98463.16
2023-01-08T23:44:27.143Z,98465.66
2023-01-08T23:46:55.250Z,98447.41
2023-01-08T23:49:25.266Z,98461.13
2023-01-08T23:51:53.400Z,98460.38
2023-01-08T23:54:21.531Z,98455.06
2023-01-08T23:56:50.110Z,98445.22
2023-01-08T23:59:18.255Z,98439.91
